Time;durP1;ratioP1;P1;durP2;ratioP2;P2;SDS_P1;SDS_P2;PMS_P1;PMS_P2;Temp;Humidity;BMP_temperature;BMP_pressure;BME280_temperature;BME280_humidity;BME280_pressure;Samples;Min_cycle;Max_cycle;Signal;HPM_P1;HPM_P2
2020/12/30 00:01:25;;;;;;;18.73;12.47;;;;;;;3.57;100.00;100078.25;1862650;77;26700;-66
2020/12/30 00:03:55;;;;;;;18.50;11.93;;;;;;;3.46;100.00;100076.50;1862683;77;26374;-67
2020/12/30 00:06:25;;;;;;;17.70;11.70;;;;;;;3.43;100.00;100070.13;1862641;77;26662;-67
2020/12/30 00:08:54;;;;;;;17.40;12.10;;;;;;;3.47;100.00;100071.81;1862623;76;26327;-67
2020/12/30 00:11:24;;;;;;;16.93;12.27;;;;;;;3.40;100.00;100077.52;1862665;77;26303;-67
2020/12/30 00:13:54;;;;;;;18.37;12.83;;;;;;;3.44;100.00;100072.33;1862797;77;26680;-67
2020/12/30 00:16:24;;;;;;;17.17;11.97;;;;;;;3.38;100.00;100076.92;1862748;77;26289;-67
2020/12/30 00:18:55;;;;;;;21.50;13.57;;;;;;;3.47;100.00;100087.74;1862608;77;26687;-67
2020/12/30 00:21:25;;;;;;;19.47;12.63;;;;;;;3.38;100.00;100089.85;1862703;77;26225;-66
2020/12/30 00:23:55;;;;;;;18.77;13.13;;;;;;;3.38;100.00;100092.59;1862754;77;26233;-67
2020/12/30 00:26:25;;;;;;;18.73;12.50;;;;;;;3.41;100.00;100089.33;1862659;77;26226;-67
2020/12/30 00:28:55;;;;;;;19.73;11.93;;;;;;;3.30;100.00;100086.99;1862745;77;26195;-66
2020/12/30 00:31:25;;;;;;;17.53;13.00;;;;;;;3.27;100.00;100087.52;1862577;77;26717;-66
2020/12/30 00:33:55;;;;;;;20.93;13.03;;;;;;;3.32;100.00;100083.46;1862718;77;26241;-67
2020/12/30 00:36:25;;;;;;;18.23;13.17;;;;;;;3.36;100.00;100089.27;1862634;77;26708;-67
2020/12/30 00:38:55;;;;;;;18.43;13.40;;;;;;;3.38;100.00;100093.97;1862708;77;26229;-67
2020/12/30 00:41:25;;;;;;;20.13;12.60;;;;;;;3.38;100.00;100094.77;1862672;77;26288;-66
2020/12/30 00:43:55;;;;;;;18.43;13.00;;;;;;;3.31;100.00;100096.89;1862729;77;26721;-66
2020/12/30 00:46:25;;;;;;;20.47;12.87;;;;;;;3.33;100.00;100094.73;1862745;77;26241;-67
2020/12/30 00:48:55;;;;;;;17.97;12.90;;;;;;;3.33;100.00;100087.04;1862691;77;26648;-66
2020/12/30 00:51:26;;;;;;;21.70;13.27;;;;;;;3.21;100.00;100087.98;1862620;77;26234;-67
2020/12/30 00:53:56;;;;;;;21.40;13.17;;;;;;;3.31;100.00;100094.14;1862843;77;26268;-66
2020/12/30 00:56:26;;;;;;;20.77;12.77;;;;;;;3.25;100.00;100093.81;1862726;77;26653;-66
2020/12/30 00:58:55;;;;;;;20.80;13.70;;;;;;;3.31;100.00;100101.00;1862600;77;26237;-66
2020/12/30 01:01:25;;;;;;;20.03;13.70;;;;;;;3.33;100.00;100098.02;1862699;77;26218;-66
2020/12/30 01:03:55;;;;;;;19.83;13.63;;;;;;;3.27;100.00;100095.75;1862719;77;26279;-67
2020/12/30 01:06:31;;;;;;;17.43;12.73;;;;;;;3.25;100.00;100106.16;1862573;77;26684;-66
2020/12/30 01:09:01;;;;;;;19.67;12.67;;;;;;;3.25;100.00;100106.16;1862663;76;26755;-66
2020/12/30 01:11:32;;;;;;;20.37;13.23;;;;;;;3.27;100.00;100105.35;1862584;77;26221;-66
2020/12/30 01:14:02;;;;;;;19.87;12.60;;;;;;;3.34;100.00;100105.17;1862657;77;26264;-66
2020/12/30 01:16:32;;;;;;;18.97;13.27;;;;;;;3.32;100.00;100105.95;1862579;77;26773;-66
2020/12/30 01:19:01;;;;;;;19.10;12.60;;;;;;;3.36;100.00;100113.42;1862603;77;26280;-66
2020/12/30 01:21:43;;;;;;;19.40;12.27;;;;;;;3.38;100.00;100114.55;1862799;77;26219;-66
2020/12/30 01:24:13;;;;;;;18.77;12.40;;;;;;;3.33;100.00;100119.44;1862660;77;26302;-66
2020/12/30 01:26:44;;;;;;;18.57;12.77;;;;;;;3.35;100.00;100117.79;1862548;77;26369;-66
2020/12/30 01:29:15;;;;;;;17.47;12.10;;;;;;;3.31;100.00;100118.84;1862649;77;26259;-66
2020/12/30 01:31:45;;;;;;;20.27;13.97;;;;;;;3.18;100.00;100120.06;1862729;77;26645;-67
2020/12/30 01:34:15;;;;;;;17.03;11.80;;;;;;;3.20;100.00;100130.25;1862791;77;26238;-66
2020/12/30 01:36:45;;;;;;;18.87;12.90;;;;;;;3.24;100.00;100119.59;1862689;77;26270;-67
2020/12/30 01:39:14;;;;;;;21.00;13.47;;;;;;;3.19;100.00;100136.81;1862643;77;26716;-67
2020/12/30 01:41:44;;;;;;;17.87;12.23;;;;;;;3.20;100.00;100137.11;1862684;77;26230;-67
2020/12/30 01:44:14;;;;;;;20.60;13.07;;;;;;;3.11;100.00;100132.31;1862726;77;26371;-67
2020/12/30 01:46:45;;;;;;;21.13;13.30;;;;;;;3.14;100.00;100134.00;1862649;77;26679;-66
2020/12/30 01:49:19;;;;;;;17.67;12.20;;;;;;;3.16;100.00;100140.08;1862867;77;26398;-66
2020/12/30 01:51:51;;;;;;;16.70;12.47;;;;;;;3.17;100.00;100136.23;1862730;77;26226;-67
2020/12/30 01:54:21;;;;;;;16.13;12.03;;;;;;;3.08;100.00;100139.12;1862637;77;26775;-66
2020/12/30 01:56:52;;;;;;;19.43;12.87;;;;;;;3.13;100.00;100147.96;1862652;77;26229;-67
2020/12/30 01:59:23;;;;;;;19.90;12.57;;;;;;;3.13;100.00;100154.82;1862698;77;26688;-67
2020/12/30 02:01:56;;;;;;;18.63;12.83;;;;;;;3.04;100.00;100160.45;1792646;80;26259;-65
2020/12/30 02:04:28;;;;;;;15.07;11.87;;;;;;;3.05;100.00;100160.21;1862754;77;26234;-66
2020/12/30 02:06:58;;;;;;;18.00;12.13;;;;;;;3.07;100.00;100159.43;1862536;76;26258;-65
2020/12/30 02:09:29;;;;;;;18.40;11.97;;;;;;;2.96;100.00;100158.98;1862538;76;26213;-66
2020/12/30 02:12:00;;;;;;;17.40;11.23;;;;;;;2.97;100.00;100166.13;1862577;77;26751;-66
2020/12/30 02:14:30;;;;;;;15.87;11.07;;;;;;;2.98;100.00;100162.31;1862590;77;26283;-67
2020/12/30 02:17:00;;;;;;;17.13;11.53;;;;;;;2.99;100.00;100167.27;1862828;77;26323;-66
2020/12/30 02:19:30;;;;;;;16.03;11.23;;;;;;;2.93;100.00;100165.52;1862565;77;26361;-66
2020/12/30 02:22:25;;;;;;;15.77;10.57;;;;;;;2.98;100.00;100167.80;1862630;77;26214;-68
2020/12/30 02:24:55;;;;;;;16.37;10.73;;;;;;;2.97;100.00;100168.04;1862686;77;26284;-67
2020/12/30 02:27:25;;;;;;;15.23;10.90;;;;;;;2.97;100.00;100168.04;1862523;77;26299;-67
2020/12/30 02:29:55;;;;;;;18.17;11.40;;;;;;;2.99;100.00;100170.00;1862616;77;26253;-67
2020/12/30 02:32:25;;;;;;;14.33;9.97;;;;;;;2.99;100.00;100167.27;1862594;77;26750;-67
2020/12/30 02:34:55;;;;;;;14.67;10.00;;;;;;;2.90;100.00;100165.48;1862654;77;26230;-67
2020/12/30 02:37:25;;;;;;;14.77;9.60;;;;;;;2.92;100.00;100177.02;1862664;77;26219;-68
2020/12/30 02:39:55;;;;;;;12.73;8.13;;;;;;;3.01;100.00;100170.56;1862728;77;26650;-67
2020/12/30 02:42:25;;;;;;;14.23;9.73;;;;;;;2.98;100.00;100173.28;1862650;77;26214;-67
2020/12/30 02:44:58;;;;;;;14.53;8.80;;;;;;;3.10;100.00;100173.17;1862708;77;26324;-67
2020/12/30 02:47:28;;;;;;;15.90;9.13;;;;;;;3.15;100.00;100171.88;1862615;77;26382;-67
2020/12/30 02:49:58;;;;;;;13.10;8.80;;;;;;;3.20;100.00;100177.44;1862587;77;26238;-67
2020/12/30 02:52:29;;;;;;;12.83;8.37;;;;;;;3.19;100.00;100171.12;1862635;77;26209;-67
2020/12/30 02:54:59;;;;;;;12.30;8.57;;;;;;;3.19;100.00;100167.54;1862647;77;26718;-66
2020/12/30 02:57:29;;;;;;;11.33;7.93;;;;;;;3.23;100.00;100171.44;1862786;77;26226;-66
2020/12/30 02:59:58;;;;;;;12.57;8.47;;;;;;;3.28;100.00;100167.93;1862795;77;26758;-66
2020/12/30 03:02:29;;;;;;;10.73;7.70;;;;;;;3.25;100.00;100166.53;1862633;77;26210;-66
2020/12/30 03:04:59;;;;;;;11.17;8.33;;;;;;;3.29;100.00;100167.69;1862665;77;26653;-66
2020/12/30 03:07:29;;;;;;;9.83;7.83;;;;;;;3.26;100.00;100168.72;1862587;77;26304;-66
2020/12/30 03:09:59;;;;;;;11.17;7.17;;;;;;;3.25;100.00;100173.40;1862669;77;26231;-66
2020/12/30 03:12:28;;;;;;;9.23;6.87;;;;;;;3.21;100.00;100177.70;1862576;76;26262;-66
2020/12/30 03:14:58;;;;;;;11.07;7.03;;;;;;;3.26;100.00;100182.44;1862647;77;26327;-66
2020/12/30 03:17:28;;;;;;;9.63;7.20;;;;;;;3.21;100.00;100177.17;1862695;77;26719;-67
2020/12/30 03:19:58;;;;;;;10.20;6.97;;;;;;;3.20;100.00;100182.93;1862635;77;26273;-66
2020/12/30 03:22:28;;;;;;;11.13;6.87;;;;;;;3.25;100.00;100190.41;1862710;77;26237;-66
2020/12/30 03:24:58;;;;;;;8.43;5.97;;;;;;;3.14;100.00;100187.50;1862980;77;26480;-66
2020/12/30 03:27:27;;;;;;;12.73;7.87;;;;;;;3.23;100.00;100187.90;1862982;77;26237;-67
2020/12/30 03:29:57;;;;;;;8.67;6.20;;;;;;;3.15;100.00;100193.29;1863004;77;26317;-66
2020/12/30 03:32:28;;;;;;;7.80;5.97;;;;;;;3.14;100.00;100194.91;1862871;77;26430;-66
2020/12/30 03:34:57;;;;;;;7.23;6.30;;;;;;;3.09;100.00;100192.08;1862961;77;26762;-67
2020/12/30 03:37:28;;;;;;;10.53;5.90;;;;;;;3.11;100.00;100200.91;1862975;77;26310;-67
2020/12/30 03:39:58;;;;;;;8.10;5.70;;;;;;;3.03;100.00;100200.80;1862962;77;26376;-66
2020/12/30 03:42:28;;;;;;;6.50;5.60;;;;;;;3.00;100.00;100208.14;1862947;77;26697;-66
2020/12/30 03:44:58;;;;;;;9.30;5.37;;;;;;;3.07;100.00;100213.47;1862956;77;26391;-66
2020/12/30 03:47:30;;;;;;;12.10;5.77;;;;;;;3.07;100.00;100205.23;1862871;77;26652;-66
2020/12/30 03:50:00;;;;;;;7.17;5.23;;;;;;;3.03;100.00;100198.59;1863054;77;26802;-66
2020/12/30 03:52:30;;;;;;;7.13;5.10;;;;;;;2.94;100.00;100200.94;1862997;77;26226;-66
2020/12/30 03:55:00;;;;;;;8.50;5.40;;;;;;;3.00;100.00;100210.05;1862929;77;26740;-66
2020/12/30 03:57:30;;;;;;;7.43;4.70;;;;;;;2.95;100.00;100212.17;1862973;77;26329;-66
2020/12/30 04:00:00;;;;;;;7.63;5.07;;;;;;;2.88;100.00;100209.31;1862912;77;26235;-67
2020/12/30 04:02:30;;;;;;;8.67;5.37;;;;;;;2.92;100.00;100214.59;1863038;77;26275;-66
2020/12/30 04:05:02;;;;;;;10.43;4.93;;;;;;;2.80;100.00;100211.11;1862874;77;26728;-66
2020/12/30 04:07:31;;;;;;;5.30;4.50;;;;;;;2.65;100.00;100211.71;1862845;77;26322;-66
2020/12/30 04:10:01;;;;;;;7.70;4.77;;;;;;;2.59;100.00;100216.27;1862795;77;26407;-66
2020/12/30 04:12:32;;;;;;;9.50;5.20;;;;;;;2.50;100.00;100205.95;1862876;76;26409;-66
2020/12/30 04:15:02;;;;;;;9.10;5.37;;;;;;;2.59;100.00;100211.32;1862875;77;26826;-67
2020/12/30 04:17:32;;;;;;;7.77;5.00;;;;;;;2.61;100.00;100207.80;1862860;77;26285;-66
2020/12/30 04:20:02;;;;;;;11.67;5.57;;;;;;;2.72;100.00;100213.73;1862839;77;26744;-66
2020/12/30 04:22:32;;;;;;;8.67;5.30;;;;;;;2.56;100.00;100211.30;1862954;77;26237;-66
2020/12/30 04:25:02;;;;;;;9.63;6.03;;;;;;;2.56;100.00;100211.30;1862785;77;26649;-66
2020/12/30 04:27:32;;;;;;;8.53;5.47;;;;;;;2.49;100.00;100207.86;1862906;77;26234;-66
2020/12/30 04:30:02;;;;;;;8.77;5.03;;;;;;;2.54;100.00;100214.80;1862871;77;26771;-67
2020/12/30 04:32:32;;;;;;;7.27;4.77;;;;;;;2.58;100.00;100219.25;1862940;77;26708;-66
2020/12/30 04:35:02;;;;;;;8.13;5.87;;;;;;;2.57;100.00;100219.78;1862703;77;26677;-66
2020/12/30 04:37:32;;;;;;;8.33;5.33;;;;;;;2.41;100.00;100191.83;1862706;77;26243;-66
2020/12/30 04:40:02;;;;;;;7.73;5.13;;;;;;;2.61;100.00;100222.31;1862728;77;26221;-66
2020/12/30 04:42:36;;;;;;;7.27;4.90;;;;;;;2.61;100.00;100226.42;1862807;77;26292;-66
2020/12/30 04:45:09;;;;;;;7.10;4.37;;;;;;;2.44;100.00;100214.63;1862641;77;26661;-66
2020/12/30 04:47:42;;;;;;;7.03;5.00;;;;;;;2.58;100.00;100221.45;1862715;77;26780;-66
2020/12/30 04:50:12;;;;;;;7.10;4.73;;;;;;;2.75;100.00;100221.45;1792723;80;26207;-67
2020/12/30 04:52:43;;;;;;;9.17;5.30;;;;;;;2.71;100.00;100223.87;1862807;77;26280;-66
2020/12/30 04:55:14;;;;;;;6.93;4.67;;;;;;;2.73;100.00;100233.23;1862717;77;26712;-67
2020/12/30 04:57:53;;;;;;;9.17;4.60;;;;;;;2.72;100.00;100237.88;1862686;77;26213;-66
2020/12/30 05:00:24;;;;;;;6.53;4.67;;;;;;;2.74;100.00;100238.44;1850275;76;930617;-65
2020/12/30 05:02:56;;;;;;;7.43;4.30;;;;;;;2.70;100.00;100235.08;1862659;77;26314;-65
2020/12/30 05:05:26;;;;;;;8.37;5.00;;;;;;;2.66;100.00;100233.91;1862650;77;26241;-65
2020/12/30 05:07:58;;;;;;;8.23;4.37;;;;;;;2.68;100.00;100238.62;1862594;77;26245;-66
2020/12/30 05:10:29;;;;;;;5.87;4.63;;;;;;;2.61;100.00;100241.51;1862657;77;26708;-65
2020/12/30 05:12:59;;;;;;;6.77;3.67;;;;;;;2.74;100.00;100243.09;1862636;76;26319;-65
2020/12/30 05:15:29;;;;;;;5.40;4.07;;;;;;;2.66;100.00;100244.88;1862756;77;26332;-68
2020/12/30 05:17:58;;;;;;;5.60;3.27;;;;;;;2.79;100.00;100244.55;1862704;77;26703;-68
2020/12/30 05:20:35;;;;;;;5.63;3.87;;;;;;;2.80;100.00;100251.70;1862682;77;26369;-68
2020/12/30 05:23:01;;;;;;;6.23;3.17;;;;;;;2.95;100.00;100260.17;1792049;80;26171;-68
2020/12/30 05:25:32;;;;;;;5.23;3.10;;;;;;;2.90;100.00;100254.63;1862778;77;26198;-68
2020/12/30 05:28:04;;;;;;;4.33;3.17;;;;;;;2.96;100.00;100258.27;1862593;77;26226;-68
2020/12/30 05:30:36;;;;;;;5.07;3.17;;;;;;;3.06;100.00;100257.06;1862649;77;26699;-68
2020/12/30 05:33:07;;;;;;;5.20;3.03;;;;;;;3.04;100.00;100264.16;1862695;77;26206;-68
2020/12/30 05:35:37;;;;;;;5.23;3.00;;;;;;;3.00;100.00;100261.63;1862884;77;26215;-67
2020/12/30 05:38:07;;;;;;;5.37;3.30;;;;;;;3.10;100.00;100255.48;1862738;77;26226;-66
2020/12/30 05:40:37;;;;;;;3.93;3.30;;;;;;;3.07;100.00;100257.36;1862829;77;26705;-66
2020/12/30 05:43:15;;;;;;;3.53;2.80;;;;;;;3.07;100.00;100265.59;1862795;77;26205;-67
2020/12/30 05:45:49;;;;;;;5.20;3.20;;;;;;;3.10;100.00;100255.48;1862668;77;26230;-67
2020/12/30 05:48:19;;;;;;;3.63;2.83;;;;;;;3.05;100.00;100254.02;1862756;77;26218;-66
2020/12/30 05:50:50;;;;;;;4.27;3.20;;;;;;;3.05;100.00;100250.74;1862762;77;26741;-67
2020/12/30 05:53:21;;;;;;;4.23;2.77;;;;;;;3.07;100.00;100254.63;1862743;77;26206;-68
2020/12/30 05:55:54;;;;;;;3.30;2.60;;;;;;;3.01;100.00;100256.98;1862854;77;26207;-67
2020/12/30 05:58:26;;;;;;;4.73;2.97;;;;;;;2.97;100.00;100261.30;1862757;77;26229;-68
2020/12/30 06:00:56;;;;;;;4.70;3.27;;;;;;;3.07;100.00;100256.83;1862695;76;26668;-67
2020/12/30 06:03:29;;;;;;;3.77;2.77;;;;;;;3.12;100.00;100253.33;1862830;77;26290;-67
2020/12/30 06:05:59;;;;;;;4.53;2.90;;;;;;;3.22;100.00;100254.84;1862689;77;26347;-68
2020/12/30 06:08:32;;;;;;;3.83;2.77;;;;;;;3.23;100.00;100250.18;1862745;77;26272;-66
2020/12/30 06:11:05;;;;;;;4.37;2.53;;;;;;;3.26;100.00;100246.92;1862451;77;26245;-67
2020/12/30 06:13:39;;;;;;;3.03;2.80;;;;;;;3.26;100.00;100256.53;1862675;76;26308;-65
2020/12/30 06:16:12;;;;;;;2.93;2.33;;;;;;;3.12;100.00;100257.45;1862733;77;26743;-66
2020/12/30 06:18:42;;;;;;;4.50;2.60;;;;;;;3.02;100.00;100262.23;1862610;77;26649;-66
2020/12/30 06:21:14;;;;;;;3.23;2.13;;;;;;;2.99;100.00;100263.27;1862827;77;26268;-68
2020/12/30 06:23:46;;;;;;;3.93;2.50;;;;;;;3.03;100.00;100267.17;1862734;77;26669;-65
2020/12/30 06:26:19;;;;;;;4.73;2.50;;;;;;;3.03;100.00;100274.03;1862736;76;26229;-65
2020/12/30 06:28:52;;;;;;;3.30;2.30;;;;;;;2.89;100.00;100279.02;1792680;80;26264;-65
2020/12/30 06:31:22;;;;;;;3.33;2.60;;;;;;;3.02;100.00;100274.57;1862708;77;26733;-68
2020/12/30 06:33:53;;;;;;;2.60;2.27;;;;;;;2.99;100.00;100275.08;1862750;77;26217;-68
2020/12/30 06:36:25;;;;;;;2.70;2.50;;;;;;;2.97;100.00;100274.48;1862656;76;26271;-65
2020/12/30 06:38:56;;;;;;;4.43;2.60;;;;;;;2.97;100.00;100278.59;1862722;77;26209;-65
2020/12/30 06:41:27;;;;;;;3.97;2.53;;;;;;;2.99;100.00;100287.42;1862751;77;26248;-66
2020/12/30 06:43:57;;;;;;;5.73;2.77;;;;;;;3.01;100.00;100285.25;1862723;76;26256;-68
2020/12/30 06:46:37;;;;;;;2.27;1.90;;;;;;;3.00;100.00;100282.73;1862678;77;26703;-66
2020/12/30 06:49:08;;;;;;;3.40;2.30;;;;;;;2.99;100.00;100294.28;1862608;77;26230;-69
2020/12/30 06:51:39;;;;;;;2.23;2.03;;;;;;;2.93;100.00;100288.94;1862569;77;26688;-68
2020/12/30 06:54:10;;;;;;;2.90;2.33;;;;;;;2.85;100.00;100290.19;1862886;77;26225;-68
2020/12/30 06:56:42;;;;;;;2.93;2.53;;;;;;;2.71;100.00;100299.27;1862760;77;26214;-65
2020/12/30 06:59:14;;;;;;;4.37;2.23;;;;;;;2.65;100.00;100302.98;1862599;77;26221;-65
2020/12/30 07:01:58;;;;;;;3.93;2.23;;;;;;;2.66;100.00;100299.17;1792578;80;26210;-64
2020/12/30 07:04:30;;;;;;;4.37;2.10;;;;;;;2.55;100.00;100302.83;1862643;77;26279;-65
2020/12/30 07:07:00;;;;;;;4.07;2.40;;;;;;;2.38;100.00;100317.56;1862715;77;26667;-67
2020/12/30 07:09:31;;;;;;;2.73;2.40;;;;;;;2.31;100.00;100312.20;1862666;77;26202;-66
2020/12/30 07:12:02;;;;;;;2.77;2.53;;;;;;;2.46;100.00;100318.00;1862608;77;26646;-66
2020/12/30 07:14:33;;;;;;;4.67;2.80;;;;;;;2.49;100.00;100296.11;1862718;76;26319;-66
2020/12/30 07:17:04;;;;;;;3.60;2.10;;;;;;;2.64;100.00;100323.28;1862705;77;26300;-66
2020/12/30 07:19:36;;;;;;;3.33;2.57;;;;;;;2.72;100.00;100324.25;1862716;77;26213;-66
2020/12/30 07:22:08;;;;;;;5.47;2.60;;;;;;;2.67;100.00;100325.52;1862619;77;26206;-66
2020/12/30 07:24:41;;;;;;;4.03;2.30;;;;;;;2.66;100.00;100325.22;1862648;77;26898;-65
2020/12/30 07:27:13;;;;;;;4.73;2.67;;;;;;;2.57;100.00;100328.60;1862575;77;26223;-65
2020/12/30 07:29:45;;;;;;;3.07;2.57;;;;;;;2.60;100.00;100327.59;1862556;77;26670;-66
2020/12/30 07:32:17;;;;;;;6.77;2.67;;;;;;;2.59;100.00;100338.27;1862607;77;26199;-66
2020/12/30 07:34:48;;;;;;;4.17;2.33;;;;;;;2.55;100.00;100337.09;1862611;77;26659;-68
2020/12/30 07:37:19;;;;;;;4.70;2.67;;;;;;;2.39;100.00;100335.67;1862705;77;26206;-68
2020/12/30 07:39:50;;;;;;;3.50;2.60;;;;;;;2.35;100.00;100342.72;1862617;77;26229;-67
2020/12/30 07:42:23;;;;;;;4.17;2.73;;;;;;;2.28;100.00;100340.94;1862568;77;26305;-67
2020/12/30 07:44:54;;;;;;;4.30;2.67;;;;;;;2.21;100.00;100343.00;1862527;77;26673;-67
2020/12/30 07:47:26;;;;;;;5.33;2.90;;;;;;;2.33;100.00;100347.06;1862576;77;26621;-67
2020/12/30 07:50:01;;;;;;;3.73;3.13;;;;;;;2.55;100.00;100343.11;1862606;77;26209;-66
2020/12/30 07:52:32;;;;;;;3.80;3.27;;;;;;;2.70;100.00;100340.10;1862572;77;26307;-67
2020/12/30 07:55:01;;;;;;;4.30;3.60;;;;;;;2.52;100.00;100345.81;1862644;77;26687;-66
2020/12/30 07:57:33;;;;;;;5.73;3.40;;;;;;;2.58;100.00;100347.55;1862612;77;26199;-67
2020/12/30 08:00:03;;;;;;;4.83;3.33;;;;;;;2.70;100.00;100351.61;1862574;77;26343;-66
2020/12/30 08:02:33;;;;;;;5.13;3.70;;;;;;;2.59;100.00;100356.08;1862528;77;26217;-67
2020/12/30 08:05:03;;;;;;;4.67;3.30;;;;;;;2.61;100.00;100361.33;1862530;77;26720;-67
2020/12/30 08:07:33;;;;;;;7.10;3.50;;;;;;;2.58;100.00;100359.06;1862558;77;26257;-68
2020/12/30 08:10:03;;;;;;;6.10;3.30;;;;;;;2.45;100.00;100366.20;1862678;77;26346;-67
2020/12/30 08:12:33;;;;;;;6.50;3.67;;;;;;;2.48;100.00;100375.33;1862705;77;26789;-66
2020/12/30 08:15:02;;;;;;;3.83;3.43;;;;;;;2.40;100.00;100372.94;1862532;76;26260;-67
2020/12/30 08:17:33;;;;;;;6.43;3.53;;;;;;;2.41;100.00;100375.45;1862676;77;26218;-66
2020/12/30 08:20:06;;;;;;;4.33;3.57;;;;;;;2.41;100.00;100371.34;1862673;77;26214;-68
2020/12/30 08:22:36;;;;;;;6.00;3.63;;;;;;;2.53;100.00;100387.20;1862575;77;26210;-66
2020/12/30 08:25:10;;;;;;;7.63;3.50;;;;;;;2.61;100.00;100383.27;1862641;77;26677;-66
2020/12/30 08:27:41;;;;;;;5.53;3.60;;;;;;;2.66;100.00;100392.40;1862705;77;26210;-68
2020/12/30 08:30:11;;;;;;;5.30;3.83;;;;;;;2.91;100.00;100399.47;1862720;77;26365;-66
2020/12/30 08:32:50;;;;;;;6.67;3.70;;;;;;;2.96;100.00;100389.39;1862766;77;26218;-67
2020/12/30 08:35:22;;;;;;;5.47;3.70;;;;;;;2.98;100.00;100397.39;1792657;80;26728;-69
2020/12/30 08:37:56;;;;;;;4.93;4.10;;;;;;;3.03;100.00;100394.75;1862701;77;26279;-67
2020/12/30 08:40:28;;;;;;;5.97;3.80;;;;;;;2.96;100.00;100400.37;1860877;77;26661;-68
2020/12/30 08:43:28;;;;;;;7.27;3.83;;;;;;;2.98;100.00;100400.13;1862655;77;26213;-67
2020/12/30 08:46:24;;;;;;;7.10;3.73;;;;;;;2.99;100.00;100401.27;1862681;77;26287;-68
2020/12/30 08:48:55;;;;;;;9.03;3.80;;;;;;;2.97;100.00;100406.16;1791696;80;26661;-67
2020/12/30 08:51:33;;;;;;;5.20;3.97;;;;;;;3.17;100.00;100404.30;1862667;77;26218;-68
2020/12/30 08:54:05;;;;;;;5.97;4.00;;;;;;;3.21;100.00;100401.36;1862694;77;26214;-68
2020/12/30 08:56:35;;;;;;;6.93;3.60;;;;;;;3.21;100.00;100399.45;1862535;76;26214;-67
2020/12/30 08:59:04;;;;;;;6.33;4.07;;;;;;;3.25;100.00;100398.44;1862653;77;26233;-67
2020/12/30 09:01:34;;;;;;;7.73;4.10;;;;;;;3.31;100.00;100407.56;1862658;77;26269;-67
2020/12/30 09:04:12;;;;;;;5.37;3.50;;;;;;;3.38;100.00;100411.80;1862658;77;26687;-67
2020/12/30 09:06:44;;;;;;;4.80;3.33;;;;;;;3.37;100.00;100406.05;1862667;77;26707;-67
2020/12/30 09:09:16;;;;;;;6.23;4.13;;;;;;;3.40;100.00;100407.45;1862742;77;26238;-67
2020/12/30 09:11:48;;;;;;;6.67;6.07;;;;;;;3.44;100.00;100412.73;1862679;77;26353;-67
2020/12/30 09:14:20;;;;;;;8.47;6.50;;;;;;;3.50;100.00;100413.13;1862623;77;26198;-67
2020/12/30 09:17:00;;;;;;;8.97;5.03;;;;;;;3.40;100.00;100412.41;1862629;76;26242;-66
2020/12/30 09:19:30;;;;;;;5.67;4.97;;;;;;;3.47;100.00;100421.84;1862663;77;26195;-66
2020/12/30 09:22:11;;;;;;;6.07;5.00;;;;;;;3.33;100.00;100417.77;1862660;77;26298;-66
2020/12/30 09:24:42;;;;;;;5.80;4.10;;;;;;;3.25;100.00;100425.88;1862656;77;26664;-67
2020/12/30 09:27:23;;;;;;;6.87;4.03;;;;;;;3.26;100.00;100430.27;1862688;77;26265;-66
2020/12/30 09:30:10;;;;;;;4.70;3.50;;;;;;;3.34;100.00;100425.73;1862685;77;26279;-67
2020/12/30 09:32:42;;;;;;;4.03;2.90;;;;;;;3.47;100.00;100424.58;1862764;77;26316;-66
2020/12/30 09:35:14;;;;;;;4.37;3.37;;;;;;;3.66;100.00;100421.36;1862758;77;26707;-67
2020/12/30 09:37:51;;;;;;;4.00;2.93;;;;;;;3.70;100.00;100424.97;1862692;77;26670;-67
2020/12/30 09:40:21;;;;;;;3.93;2.80;;;;;;;3.67;100.00;100424.94;1792648;80;26241;-67
2020/12/30 09:42:51;;;;;;;3.73;2.83;;;;;;;3.70;100.00;100438.70;1862778;77;26284;-67
2020/12/30 09:45:23;;;;;;;6.80;3.17;;;;;;;3.71;100.00;100429.38;1862710;77;26734;-69
2020/12/30 09:47:54;;;;;;;3.03;2.67;;;;;;;3.72;100.00;100433.27;1862754;77;26304;-67
2020/12/30 09:50:24;;;;;;;6.37;3.37;;;;;;;3.75;100.00;100431.38;1862491;76;26279;-67
2020/12/30 09:52:55;;;;;;;6.03;3.30;;;;;;;3.88;100.00;100431.03;1862735;77;26639;-67
2020/12/30 09:55:25;;;;;;;6.23;2.80;;;;;;;3.93;100.00;100431.13;1862703;77;26191;-68
2020/12/30 09:57:55;;;;;;;5.67;3.37;;;;;;;4.06;100.00;100435.42;1862663;77;26703;-69
2020/12/30 10:00:25;;;;;;;5.87;3.13;;;;;;;4.10;100.00;100437.42;1862658;77;26241;-67
2020/12/30 10:02:55;;;;;;;6.40;3.17;;;;;;;4.10;100.00;100434.67;1862624;77;26221;-67
2020/12/30 10:05:25;;;;;;;6.47;3.17;;;;;;;4.10;100.00;100433.83;1862678;77;26230;-67
2020/12/30 10:07:55;;;;;;;5.67;3.60;;;;;;;4.18;100.00;100440.81;1862703;77;26708;-68
2020/12/30 10:10:25;;;;;;;3.77;2.90;;;;;;;4.17;100.00;100438.59;1862802;77;26261;-68
2020/12/30 10:12:55;;;;;;;5.70;3.30;;;;;;;4.20;100.00;100435.88;1862730;77;26193;-68
2020/12/30 10:15:27;;;;;;;4.10;2.87;;;;;;;4.24;100.00;100436.48;1862650;77;26853;-67
2020/12/30 10:17:57;;;;;;;9.07;3.00;;;;;;;4.32;100.00;100438.80;1862592;77;26238;-68
2020/12/30 10:20:27;;;;;;;5.23;2.83;;;;;;;4.45;100.00;100434.88;1862760;77;26683;-69
2020/12/30 10:22:57;;;;;;;3.03;2.60;;;;;;;4.49;100.00;100434.08;1862712;77;26202;-67
2020/12/30 10:25:27;;;;;;;4.63;2.90;;;;;;;4.60;100.00;100443.30;1862693;77;26390;-67
2020/12/30 10:27:57;;;;;;;4.23;2.70;;;;;;;4.61;100.00;100435.89;1862702;77;26237;-67
2020/12/30 10:30:26;;;;;;;6.70;2.63;;;;;;;4.71;100.00;100439.58;1862614;77;26273;-68
2020/12/30 10:32:56;;;;;;;5.17;2.87;;;;;;;4.66;100.00;100440.08;1862658;77;26697;-68
2020/12/30 10:35:26;;;;;;;5.60;3.00;;;;;;;4.59;100.00;100438.34;1862674;77;26739;-68
2020/12/30 10:37:56;;;;;;;4.70;2.30;;;;;;;4.63;100.00;100439.20;1862724;77;26229;-69
2020/12/30 10:40:26;;;;;;;5.00;2.40;;;;;;;4.68;100.00;100438.72;1862638;77;26316;-69
2020/12/30 10:42:56;;;;;;;4.97;2.40;;;;;;;4.75;100.00;100438.55;1862692;77;26389;-69
2020/12/30 10:45:25;;;;;;;5.40;2.53;;;;;;;4.77;100.00;100431.68;1862701;77;26217;-68
2020/12/30 10:47:55;;;;;;;6.37;2.70;;;;;;;4.76;100.00;100430.55;1862595;77;26287;-71
2020/12/30 10:50:25;;;;;;;4.67;2.50;;;;;;;4.77;100.00;100428.09;1862659;77;26193;-68
2020/12/30 10:52:55;;;;;;;7.07;3.00;;;;;;;4.76;100.00;100429.17;1862593;77;26205;-67
2020/12/30 10:55:25;;;;;;;8.10;3.53;;;;;;;4.77;100.00;100429.47;1862652;77;26666;-69
2020/12/30 10:57:55;;;;;;;6.10;3.10;;;;;;;4.77;100.00;100428.09;1862628;77;26416;-69
2020/12/30 11:00:25;;;;;;;6.60;3.43;;;;;;;4.75;100.00;100422.84;1862593;77;26684;-69
2020/12/30 11:02:55;;;;;;;9.83;4.50;;;;;;;4.71;100.00;100427.73;1862598;77;26331;-67
2020/12/30 11:05:24;;;;;;;9.97;4.77;;;;;;;4.75;100.00;100430.29;1862624;77;26222;-69
2020/12/30 11:07:54;;;;;;;9.27;4.80;;;;;;;4.86;100.00;100436.19;1862575;77;26681;-67
2020/12/30 11:10:24;;;;;;;8.57;5.07;;;;;;;4.96;100.00;100428.05;1862639;77;26218;-68
2020/12/30 11:12:54;;;;;;;8.57;4.80;;;;;;;4.98;100.00;100432.73;1862592;77;26230;-67
2020/12/30 11:15:23;;;;;;;7.93;3.50;;;;;;;4.97;100.00;100419.52;1862601;77;26275;-69
2020/12/30 11:17:53;;;;;;;6.03;2.73;;;;;;;5.10;100.00;100427.08;1862527;76;26322;-69
2020/12/30 11:20:23;;;;;;;5.00;2.73;;;;;;;5.32;100.00;100419.05;1862680;77;26284;-68
2020/12/30 11:22:53;;;;;;;5.93;2.40;;;;;;;5.42;100.00;100413.64;1862607;77;26190;-69
2020/12/30 11:25:23;;;;;;;8.13;2.43;;;;;;;5.62;100.00;100410.76;1862618;77;26770;-68
2020/12/30 11:27:52;;;;;;;6.40;2.60;;;;;;;5.61;100.00;100404.41;1862547;77;26244;-69
2020/12/30 11:30:22;;;;;;;4.57;2.20;;;;;;;5.65;100.00;100414.39;1862644;77;26629;-68
2020/12/30 11:32:52;;;;;;;6.40;2.20;;;;;;;5.60;100.00;100406.08;1862537;77;26279;-69
2020/12/30 11:35:22;;;;;;;3.50;2.00;;;;;;;5.50;100.00;100414.53;1862684;77;26710;-69
2020/12/30 11:37:51;;;;;;;8.37;2.20;;;;;;;5.56;100.00;100414.58;1862641;77;26210;-69
2020/12/30 11:40:22;;;;;;;5.77;2.00;;;;;;;5.57;100.00;100414.84;1863002;77;26637;-69